Time;durP1;ratioP1;P1;durP2;ratioP2;P2;SDS_P1;SDS_P2;PMS_P1;PMS_P2;Temp;Humidity;BMP_temperature;BMP_pressure;BME280_temperature;BME280_humidity;BME280_pressure;Samples;Min_cycle;Max_cycle;Signal;HPM_P1;HPM_P2
2021/10/18 00:00:07;;;;;;;8.13;5.22;;;;;;;16.06;49.03;101702.16;348147;28;1169;-61
2021/10/18 00:00:20;;;;;;;7.80;5.35;;;;;;;16.06;49.06;101701.31;348198;28;994;-60
2021/10/18 00:00:32;;;;;;;7.78;5.40;;;;;;;16.05;49.26;101703.13;348133;28;1093;-61
2021/10/18 00:00:45;;;;;;;8.02;5.45;;;;;;;16.05;49.01;101699.59;348262;28;1161;-61
2021/10/18 00:00:57;;;;;;;8.40;5.63;;;;;;;16.04;48.97;101696.09;348207;28;1227;-61
2021/10/18 00:01:09;;;;;;;8.90;5.55;;;;;;;16.05;48.97;101702.25;348177;28;1268;-60
2021/10/18 00:01:26;;;;;;;8.63;5.45;;;;;;;16.05;49.10;101708.44;349617;28;1106;-62
2021/10/18 00:01:43;;;;;;;8.75;5.50;;;;;;;15.96;48.90;101690.25;348148;28;1090;-63
2021/10/18 00:01:56;;;;;;;9.10;5.53;;;;;;;16.05;48.76;101704.91;348158;28;1010;-61
2021/10/18 00:02:12;;;;;;;8.68;5.50;;;;;;;16.05;49.24;101697.81;348218;28;1141;-60
2021/10/18 00:02:25;;;;;;;8.43;5.60;;;;;;;16.05;49.27;101707.53;348153;28;1914;-63
2021/10/18 00:02:42;;;;;;;8.18;5.57;;;;;;;15.97;48.80;101690.16;348155;28;1030;-62
2021/10/18 00:02:54;;;;;;;8.27;5.60;;;;;;;16.05;49.33;101704.91;348275;28;1073;-63
2021/10/18 00:03:06;;;;;;;8.80;5.47;;;;;;;16.01;48.76;101703.31;348202;28;1046;-62
2021/10/18 00:03:23;;;;;;;8.85;5.55;;;;;;;16.04;49.33;101706.69;348288;28;1034;-60
2021/10/18 00:03:36;;;;;;;8.43;5.55;;;;;;;16.00;49.06;101698.94;348102;28;1106;-60
2021/10/18 00:03:48;;;;;;;8.43;5.50;;;;;;;16.05;48.91;101707.53;348340;28;686;-60
2021/10/18 00:04:05;;;;;;;8.40;5.60;;;;;;;15.97;49.31;101690.16;348083;28;1025;-61
2021/10/18 00:04:17;;;;;;;8.27;5.60;;;;;;;16.05;49.05;101707.53;348162;28;1698;-62
2021/10/18 00:04:29;;;;;;;7.75;5.53;;;;;;;16.04;49.15;101709.34;349140;28;1202;-63
2021/10/18 00:04:46;;;;;;;8.38;5.50;;;;;;;16.03;49.04;101707.63;348141;28;1238;-60
2021/10/18 00:04:58;;;;;;;8.35;5.30;;;;;;;16.05;49.20;101704.91;348172;28;1195;-61
2021/10/18 00:05:13;;;;;;;7.88;5.25;;;;;;;16.01;48.89;101700.66;349540;28;1029;-61
2021/10/18 00:05:30;;;;;;;8.00;5.60;;;;;;;16.04;48.73;101708.47;348214;28;1093;-63
2021/10/18 00:05:42;;;;;;;8.07;5.55;;;;;;;16.03;49.02;101704.13;348166;28;1090;-60
2021/10/18 00:05:54;;;;;;;7.65;5.40;;;;;;;15.99;49.15;101690.13;348248;28;1066;-61
2021/10/18 00:06:11;;;;;;;7.78;5.40;;;;;;;16.03;49.00;101706.78;348231;28;1121;-60
2021/10/18 00:06:28;;;;;;;8.75;5.82;;;;;;;15.95;48.96;101694.69;349255;28;1187;-60
2021/10/18 00:06:40;;;;;;;9.02;5.93;;;;;;;16.05;49.19;101708.44;349517;28;1172;-62
2021/10/18 00:06:52;;;;;;;9.25;5.65;;;;;;;16.02;48.88;101705.91;349637;28;1050;-61
2021/10/18 00:07:10;;;;;;;8.90;5.50;;;;;;;16.02;48.91;101697.09;349554;28;1085;-63
2021/10/18 00:07:22;;;;;;;7.85;5.50;;;;;;;16.01;48.79;101698.84;349633;28;1160;-62
2021/10/18 00:07:34;;;;;;;7.40;5.40;;;;;;;16.01;48.93;101704.16;349566;28;1090;-60
2021/10/18 00:07:51;;;;;;;8.02;5.35;;;;;;;15.99;48.74;101703.38;349509;28;1363;-62
2021/10/18 00:08:03;;;;;;;8.48;5.50;;;;;;;16.00;48.92;101701.59;349599;28;1172;-63
2021/10/18 00:08:15;;;;;;;8.90;5.90;;;;;;;15.91;49.03;101681.63;349605;28;1093;-61
2021/10/18 00:08:32;;;;;;;8.98;6.03;;;;;;;16.03;49.20;101704.97;349558;28;1168;-60
2021/10/18 00:08:49;;;;;;;8.52;5.70;;;;;;;15.92;49.15;101688.66;349389;28;1134;-62
2021/10/18 00:09:07;;;;;;;8.20;5.50;;;;;;;15.99;49.18;101694.53;349605;28;970;-62
2021/10/18 00:09:23;;;;;;;8.98;5.50;;;;;;;15.96;49.10;101695.53;349620;28;1034;-61
2021/10/18 00:09:35;;;;;;;9.02;5.60;;;;;;;16.00;49.07;101696.28;349004;28;1123;-63
2021/10/18 00:09:52;;;;;;;8.60;5.50;;;;;;;15.98;48.92;101696.34;348118;28;1298;-63
2021/10/18 00:10:06;;;;;;;8.30;5.57;;;;;;;16.03;49.14;101710.28;348167;28;1165;-61
2021/10/18 00:10:23;;;;;;;8.52;5.47;;;;;;;16.04;49.07;101708.47;348193;28;1042;-61
2021/10/18 00:10:35;;;;;;;9.18;5.60;;;;;;;16.03;49.06;101706.78;348220;28;1097;-63
2021/10/18 00:10:52;;;;;;;9.00;5.72;;;;;;;15.95;49.20;101692.03;348116;28;1169;-61
2021/10/18 00:11:09;;;;;;;8.45;5.50;;;;;;;15.94;49.01;101692.09;348195;28;899;-60
2021/10/18 00:11:41;;;;;;;8.77;5.57;;;;;;;16.02;49.29;101697.09;348189;28;1090;-61
2021/10/18 00:11:54;;;;;;;8.93;5.82;;;;;;;16.04;49.11;101705.81;348119;28;1010;-61
2021/10/18 00:12:11;;;;;;;8.48;5.60;;;;;;;16.03;49.09;101704.97;348216;28;1074;-63
2021/10/18 00:12:23;;;;;;;7.97;5.53;;;;;;;16.03;49.31;101699.66;348157;28;1086;-60
2021/10/18 00:12:37;;;;;;;8.77;5.95;;;;;;;16.00;48.88;101698.94;348170;28;765;-61
2021/10/18 00:12:49;;;;;;;9.35;6.10;;;;;;;16.03;49.12;101704.97;348106;28;1105;-60
2021/10/18 00:13:02;;;;;;;8.80;6.00;;;;;;;16.04;49.15;101705.81;348095;28;1010;-60
2021/10/18 00:13:19;;;;;;;8.23;5.78;;;;;;;16.04;49.05;101712.00;348238;28;1141;-61
2021/10/18 00:13:32;;;;;;;8.35;5.68;;;;;;;15.96;49.27;101695.53;348267;28;1108;-60
2021/10/18 00:13:49;;;;;;;8.07;5.53;;;;;;;16.04;49.07;101709.34;348137;28;1164;-63
2021/10/18 00:14:01;;;;;;;8.05;5.43;;;;;;;16.03;49.20;101707.63;348125;28;1156;-61
2021/10/18 00:14:18;;;;;;;8.55;5.70;;;;;;;16.04;49.04;101706.69;348242;28;1137;-61
2021/10/18 00:14:30;;;;;;;8.70;5.75;;;;;;;15.97;48.90;101694.63;348172;28;1092;-63
2021/10/18 00:14:42;;;;;;;9.02;5.80;;;;;;;16.04;49.12;101703.16;348168;28;1194;-60
2021/10/18 00:15:00;;;;;;;9.25;6.15;;;;;;;16.03;49.04;101706.78;348070;28;1191;-61
2021/10/18 00:15:16;;;;;;;8.43;5.90;;;;;;;16.00;49.10;101701.59;348119;28;1073;-62
2021/10/18 00:15:33;;;;;;;7.90;5.50;;;;;;;15.89;49.08;101680.81;348201;28;1077;-60
2021/10/18 00:15:50;;;;;;;8.98;5.95;;;;;;;15.95;48.85;101693.81;348110;28;1030;-60
2021/10/18 00:16:02;;;;;;;8.77;5.85;;;;;;;15.95;49.07;101685.84;348193;28;717;-61
2021/10/18 00:16:20;;;;;;;7.75;5.43;;;;;;;16.03;49.15;101702.31;348107;28;1078;-63
2021/10/18 00:16:32;;;;;;;8.00;5.60;;;;;;;15.96;49.38;101695.53;348274;28;674;-61
2021/10/18 00:16:49;;;;;;;8.15;5.82;;;;;;;16.02;48.86;101702.38;349327;28;1135;-63
2021/10/18 00:17:01;;;;;;;8.52;5.70;;;;;;;15.99;49.08;101698.09;349571;28;1104;-62
2021/10/18 00:17:13;;;;;;;8.07;5.53;;;;;;;15.94;49.08;101692.97;349435;28;986;-63
2021/10/18 00:17:31;;;;;;;8.18;5.30;;;;;;;15.90;49.27;101686.03;349591;28;1096;-63
2021/10/18 00:17:44;;;;;;;8.82;5.30;;;;;;;16.01;48.95;101696.19;349490;28;1008;-62
2021/10/18 00:18:01;;;;;;;9.68;5.45;;;;;;;16.02;48.91;101699.75;349597;28;713;-61
2021/10/18 00:18:13;;;;;;;9.70;5.55;;;;;;;15.88;48.98;101677.31;349487;28;1173;-61
2021/10/18 00:18:26;;;;;;;9.13;5.50;;;;;;;16.03;48.96;101701.47;349612;28;1074;-60
2021/10/18 00:18:43;;;;;;;7.85;5.32;;;;;;;15.98;48.91;101699.00;349424;28;1217;-60
2021/10/18 00:18:55;;;;;;;8.65;5.57;;;;;;;15.93;48.96;101699.19;349436;28;1057;-60
2021/10/18 00:19:08;;;;;;;8.43;5.57;;;;;;;16.02;49.20;101705.03;349508;28;840;-62
2021/10/18 00:19:20;;;;;;;8.65;5.53;;;;;;;16.01;49.15;101704.16;349578;28;912;-63
2021/10/18 00:19:37;;;;;;;9.27;6.00;;;;;;;15.92;48.99;101686.84;349621;28;1109;-61
2021/10/18 00:19:49;;;;;;;8.52;6.07;;;;;;;15.92;49.39;101686.84;349464;28;1253;-60
2021/10/18 00:20:05;;;;;;;8.57;6.03;;;;;;;15.93;49.15;101688.59;349433;28;1195;-60
2021/10/18 00:20:17;;;;;;;8.45;5.72;;;;;;;16.01;49.02;101704.16;348220;28;1076;-63
2021/10/18 00:20:29;;;;;;;8.15;5.63;;;;;;;15.94;49.26;101692.97;348140;28;1203;-62
2021/10/18 00:20:47;;;;;;;8.80;5.70;;;;;;;15.93;49.01;101693.88;349634;28;1007;-61
2021/10/18 00:20:59;;;;;;;8.90;5.82;;;;;;;16.00;49.18;101704.25;349286;28;1046;-60
2021/10/18 00:21:11;;;;;;;8.65;6.05;;;;;;;16.02;48.87;101705.03;349538;28;990;-60
2021/10/18 00:21:23;;;;;;;8.68;6.13;;;;;;;15.92;49.36;101689.50;349437;28;1308;-61
2021/10/18 00:21:36;;;;;;;8.32;5.93;;;;;;;15.94;49.23;101692.97;349588;28;1082;-63
2021/10/18 00:21:53;;;;;;;8.32;5.85;;;;;;;16.00;49.24;101706.88;347658;28;1268;-60
2021/10/18 00:22:05;;;;;;;9.40;5.82;;;;;;;15.85;49.12;101680.09;346623;28;2085;-63
2021/10/18 00:22:22;;;;;;;10.02;5.90;;;;;;;16.01;49.28;101701.50;346656;28;1026;-63
2021/10/18 00:22:34;;;;;;;9.30;5.88;;;;;;;16.02;49.04;101708.53;346725;28;1090;-60
2021/10/18 00:22:46;;;;;;;9.23;5.80;;;;;;;15.97;49.11;101705.22;346642;28;1085;-62
2021/10/18 00:23:03;;;;;;;9.25;5.60;;;;;;;15.94;48.98;101692.09;346584;28;1011;-62
2021/10/18 00:23:15;;;;;;;8.82;5.60;;;;;;;15.94;49.03;101703.56;346635;28;1050;-62
2021/10/18 00:23:32;;;;;;;9.27;5.70;;;;;;;15.86;49.16;101689.78;346605;28;1013;-61
2021/10/18 00:23:49;;;;;;;10.12;6.02;;;;;;;15.95;48.98;101692.03;348046;28;1138;-62
2021/10/18 00:24:01;;;;;;;9.30;6.00;;;;;;;16.02;48.87;101710.34;348087;28;1059;-61
2021/10/18 00:24:19;;;;;;;9.40;6.13;;;;;;;15.97;49.24;101708.75;348083;28;1173;-62
2021/10/18 00:24:31;;;;;;;9.88;6.20;;;;;;;16.00;49.38;101705.09;348184;28;1088;-61
2021/10/18 00:24:43;;;;;;;8.75;5.97;;;;;;;16.01;48.85;101712.13;348115;28;1084;-63
2021/10/18 00:24:55;;;;;;;8.45;5.50;;;;;;;15.84;49.19;101680.16;348107;28;1093;-60
2021/10/18 00:25:12;;;;;;;8.57;5.50;;;;;;;16.01;49.07;101712.13;348009;28;1166;-62
2021/10/18 00:25:24;;;;;;;8.02;5.70;;;;;;;15.93;49.24;101698.31;348077;28;1065;-60
2021/10/18 00:25:41;;;;;;;8.32;5.70;;;;;;;16.01;49.15;101705.97;348236;28;1213;-60
2021/10/18 00:25:54;;;;;;;8.43;5.47;;;;;;;15.91;49.00;101690.44;349463;28;1156;-60
2021/10/18 00:26:11;;;;;;;8.20;5.78;;;;;;;15.92;49.38;101697.47;348956;28;1168;-62
2021/10/18 00:26:23;;;;;;;8.57;6.22;;;;;;;15.99;49.15;101713.13;348259;28;760;-63
2021/10/18 00:26:35;;;;;;;8.85;5.97;;;;;;;16.01;49.01;101713.94;348179;28;1009;-61
2021/10/18 00:26:52;;;;;;;9.07;5.93;;;;;;;15.94;49.23;101703.56;348157;28;1093;-63
2021/10/18 00:27:04;;;;;;;8.85;6.10;;;;;;;16.01;49.13;101711.28;348441;28;1124;-61
2021/10/18 00:27:16;;;;;;;8.98;5.95;;;;;;;16.01;49.07;101708.63;349503;28;1141;-63
2021/10/18 00:27:33;;;;;;;9.88;5.90;;;;;;;15.99;49.17;101706.03;349633;28;1188;-60
2021/10/18 00:27:46;;;;;;;9.40;5.70;;;;;;;15.96;49.02;101699.03;349583;28;1054;-61
2021/10/18 00:28:03;;;;;;;9.25;6.00;;;;;;;15.92;48.87;101696.63;349437;28;1110;-63
2021/10/18 00:28:15;;;;;;;9.38;6.07;;;;;;;15.91;49.12;101693.09;349398;28;1115;-60
2021/10/18 00:28:32;;;;;;;9.40;5.88;;;;;;;16.01;49.01;101713.94;349619;28;1081;-60
2021/10/18 00:28:44;;;;;;;10.27;5.97;;;;;;;15.88;49.10;101685.28;349526;28;1058;-62
2021/10/18 00:29:01;;;;;;;9.63;5.70;;;;;;;15.93;49.20;101693.00;348052;28;1169;-62
2021/10/18 00:29:13;;;;;;;8.60;5.70;;;;;;;15.91;48.92;101694.88;347913;28;1068;-61
2021/10/18 00:29:25;;;;;;;8.55;5.88;;;;;;;15.90;48.90;101691.34;348024;28;1017;-60
2021/10/18 00:29:42;;;;;;;8.77;5.75;;;;;;;16.01;48.94;101703.31;348101;28;1134;-60
2021/10/18 00:29:59;;;;;;;8.18;5.68;;;;;;;16.00;49.17;101707.75;347969;28;1009;-63
2021/10/18 00:30:13;;;;;;;7.95;5.75;;;;;;;15.99;48.91;101706.03;347847;28;1243;-60
2021/10/18 00:30:30;;;;;;;8.50;5.53;;;;;;;15.94;48.98;101697.41;346509;28;1234;-62
2021/10/18 00:30:42;;;;;;;8.43;5.53;;;;;;;15.95;49.37;101697.34;346735;28;1026;-62
2021/10/18 00:30:59;;;;;;;8.52;5.65;;;;;;;15.91;49.22;101686.94;347917;28;1242;-62
2021/10/18 00:31:11;;;;;;;8.85;5.45;;;;;;;15.98;48.81;101701.66;348155;28;1085;-62
2021/10/18 00:31:23;;;;;;;8.43;5.53;;;;;;;15.94;49.16;101698.28;348170;28;1101;-61
2021/10/18 00:31:40;;;;;;;8.50;6.03;;;;;;;15.92;48.87;101692.16;348203;28;1172;-61
2021/10/18 00:31:52;;;;;;;8.80;6.32;;;;;;;15.98;49.04;101699.00;348272;28;693;-63
2021/10/18 00:32:09;;;;;;;8.60;6.20;;;;;;;15.99;48.88;101703.38;348084;28;757;-63
2021/10/18 00:32:21;;;;;;;9.18;5.95;;;;;;;15.93;49.39;101690.34;348192;28;1097;-63
2021/10/18 00:32:38;;;;;;;9.48;6.13;;;;;;;15.99;49.42;101698.09;348185;28;1085;-63
2021/10/18 00:32:50;;;;;;;8.70;5.80;;;;;;;15.99;49.01;101702.50;348067;28;1937;-61
2021/10/18 00:33:02;;;;;;;8.82;5.85;;;;;;;15.96;48.88;101701.69;348032;28;1157;-61
2021/10/18 00:33:20;;;;;;;8.65;5.88;;;;;;;16.00;49.11;101704.25;348128;28;899;-61
2021/10/18 00:33:33;;;;;;;8.55;5.45;;;;;;;16.00;49.14;101704.25;348139;28;1074;-61
2021/10/18 00:33:45;;;;;;;8.93;5.68;;;;;;;16.00;49.07;101707.75;348123;28;1139;-62
2021/10/18 00:34:02;;;;;;;9.27;6.07;;;;;;;15.99;49.15;101703.38;348094;28;1161;-60
2021/10/18 00:34:14;;;;;;;9.45;6.03;;;;;;;15.99;48.91;101707.81;348052;28;1029;-59
2021/10/18 00:34:31;;;;;;;8.70;5.93;;;;;;;15.92;49.04;101693.97;348149;28;1180;-61
2021/10/18 00:34:43;;;;;;;8.48;5.78;;;;;;;15.99;48.94;101699.84;348123;28;990;-61
2021/10/18 00:34:55;;;;;;;8.60;5.70;;;;;;;15.99;49.04;101705.16;348208;28;1105;-61
2021/10/18 00:35:12;;;;;;;8.63;5.70;;;;;;;15.89;49.16;101691.44;347925;28;2083;-61
2021/10/18 00:35:24;;;;;;;8.27;5.60;;;;;;;15.87;48.90;101682.66;348038;28;1194;-60
2021/10/18 00:35:41;;;;;;;8.48;5.65;;;;;;;15.88;49.10;101687.94;348391;28;1150;-61
2021/10/18 00:35:53;;;;;;;8.38;5.63;;;;;;;15.94;49.24;101694.75;348133;28;1124;-59
2021/10/18 00:36:05;;;;;;;8.30;5.63;;;;;;;15.92;49.22;101691.31;348772;28;1171;-61
2021/10/18 00:36:22;;;;;;;8.85;5.93;;;;;;;15.83;49.11;101673.97;349520;28;1018;-59
2021/10/18 00:36:35;;;;;;;8.68;5.82;;;;;;;15.99;49.36;101705.16;349566;28;892;-60
2021/10/18 00:36:51;;;;;;;8.73;5.65;;;;;;;15.96;48.91;101699.03;349569;28;1089;-59
2021/10/18 00:37:04;;;;;;;8.98;5.93;;;;;;;15.83;48.80;101681.06;349565;28;1041;-60
2021/10/18 00:37:16;;;;;;;8.98;5.97;;;;;;;15.96;48.97;101704.34;349367;28;1000;-60
2021/10/18 00:37:33;;;;;;;8.63;5.65;;;;;;;15.98;49.00;101701.66;349406;28;1089;-61
2021/10/18 00:37:45;;;;;;;8.68;5.80;;;;;;;15.98;48.96;101701.66;349540;28;891;-62
2021/10/18 00:38:02;;;;;;;9.12;5.80;;;;;;;15.90;49.27;101688.69;349487;28;1289;-60
2021/10/18 00:38:14;;;;;;;9.13;6.03;;;;;;;15.92;49.23;101693.97;349403;28;1092;-60
2021/10/18 00:38:26;;;;;;;9.27;6.10;;;;;;;15.92;49.06;101692.16;349517;28;998;-59
2021/10/18 00:38:43;;;;;;;8.82;5.82;;;;;;;15.89;49.23;101686.97;349516;28;1009;-60
2021/10/18 00:38:55;;;;;;;8.15;5.72;;;;;;;15.95;48.85;101694.69;349442;28;1108;-60
2021/10/18 00:39:07;;;;;;;8.15;5.70;;;;;;;15.92;48.71;101692.16;349496;28;1088;-59
2021/10/18 00:39:20;;;;;;;8.10;5.60;;;;;;;15.90;48.78;101688.69;349336;28;1005;-60
2021/10/18 00:39:32;;;;;;;7.95;5.60;;;;;;;15.97;49.14;101695.47;349552;28;1363;-60
2021/10/18 00:39:44;;;;;;;8.65;5.95;;;;;;;15.97;48.90;101697.28;349490;28;1084;-60
2021/10/18 00:40:01;;;;;;;9.45;6.38;;;;;;;15.93;48.92;101696.53;349468;28;1036;-62
2021/10/18 00:40:14;;;;;;;8.88;6.13;;;;;;;15.97;49.15;101698.13;349448;28;1113;-63
2021/10/18 00:40:31;;;;;;;9.14;5.90;;;;;;;15.97;49.33;101703.44;349511;28;1187;-59
2021/10/18 00:40:43;;;;;;;8.75;5.82;;;;;;;15.96;49.37;101693.75;349164;28;1183;-61
2021/10/18 00:40:55;;;;;;;8.20;5.80;;;;;;;15.97;49.24;101694.63;349485;28;1272;-62
2021/10/18 00:41:12;;;;;;;8.65;6.03;;;;;;;15.92;48.84;101691.31;349398;28;1932;-60
2021/10/18 00:41:25;;;;;;;8.88;5.88;;;;;;;15.95;49.30;101693.81;349421;28;1195;-61
2021/10/18 00:41:42;;;;;;;8.73;5.85;;;;;;;15.96;49.39;101699.03;349434;28;1125;-59
2021/10/18 00:41:59;;;;;;;8.55;5.93;;;;;;;15.97;49.23;101703.44;349520;28;1028;-59
2021/10/18 00:42:16;;;;;;;8.25;5.43;;;;;;;15.90;49.22;101688.69;349395;28;1077;-61
2021/10/18 00:42:33;;;;;;;8.35;5.55;;;;;;;15.98;49.17;101701.66;349462;28;1131;-60
2021/10/18 00:42:45;;;;;;;8.20;5.70;;;;;;;15.97;49.24;101699.94;349551;28;1468;-62
2021/10/18 00:42:57;;;;;;;8.05;5.55;;;;;;;15.97;49.17;101697.28;349525;28;1199;-61
2021/10/18 00:43:09;;;;;;;8.07;5.90;;;;;;;15.94;49.26;101694.75;349572;28;977;-61
2021/10/18 00:43:22;;;;;;;8.30;6.10;;;;;;;15.90;49.15;101688.69;349519;28;1167;-60
2021/10/18 00:43:35;;;;;;;8.23;6.07;;;;;;;15.95;49.25;101694.69;349500;28;1037;-60
2021/10/18 00:43:55;;;;;;;8.80;5.90;;;;;;;15.93;49.10;101693.88;349527;28;1179;-59
2021/10/18 00:44:07;;;;;;;9.32;6.00;;;;;;;15.92;48.91;101691.31;349432;28;982;-61
2021/10/18 00:44:19;;;;;;;8.93;5.95;;;;;;;15.94;49.39;101698.28;349481;28;1979;-59
2021/10/18 00:44:37;;;;;;;8.52;5.90;;;;;;;15.81;49.30;101675.81;349546;28;1086;-61
2021/10/18 00:44:50;;;;;;;8.55;5.82;;;;;;;15.78;48.94;101668.84;349482;28;1144;-61
2021/10/18 00:45:03;;;;;;;8.95;5.82;;;;;;;15.83;49.25;101678.44;349519;28;792;-61
2021/10/18 00:45:15;;;;;;;9.20;5.95;;;;;;;15.97;49.11;101707.88;349514;28;1120;-61
2021/10/18 00:45:33;;;;;;;8.57;6.05;;;;;;;15.98;49.23;101701.66;349575;28;943;-59
2021/10/18 00:45:45;;;;;;;8.60;6.28;;;;;;;15.94;49.04;101700.03;349815;28;1225;-61
2021/10/18 00:46:02;;;;;;;9.45;6.32;;;;;;;15.96;49.24;101708.81;350687;28;1150;-60
2021/10/18 00:46:23;;;;;;;9.52;6.60;;;;;;;15.85;49.14;101685.38;350913;28;1013;-59
2021/10/18 00:46:36;;;;;;;8.95;6.50;;;;;;;15.96;49.05;101707.00;349606;28;1120;-59
2021/10/18 00:46:52;;;;;;;8.48;6.03;;;;;;;15.86;49.06;101687.13;349404;28;1049;-60
2021/10/18 00:47:21;;;;;;;7.95;5.78;;;;;;;15.96;48.93;101704.34;349525;28;1224;-62
2021/10/18 00:47:33;;;;;;;8.68;5.70;;;;;;;15.88;49.15;101693.22;349489;28;1085;-60
2021/10/18 00:47:46;;;;;;;8.73;5.85;;;;;;;15.93;49.19;101701.84;349948;28;1222;-60
2021/10/18 00:47:58;;;;;;;8.63;6.00;;;;;;;15.91;49.27;101700.19;350896;28;1108;-59
2021/10/18 00:48:10;;;;;;;9.20;6.32;;;;;;;15.92;49.07;101700.13;350960;28;1093;-60
2021/10/18 00:48:22;;;;;;;9.68;6.18;;;;;;;15.90;49.15;101695.81;350879;28;1069;-62
2021/10/18 00:48:39;;;;;;;8.85;5.97;;;;;;;15.97;49.13;101705.22;350984;28;1081;-62
2021/10/18 00:48:53;;;;;;;8.30;6.05;;;;;;;15.72;49.07;101670.88;350876;28;1018;-61
2021/10/18 00:49:05;;;;;;;9.32;6.10;;;;;;;15.94;48.92;101706.22;350808;28;1018;-61
2021/10/18 00:49:22;;;;;;;9.82;6.18;;;;;;;15.96;49.00;101699.03;350794;28;1017;-61
2021/10/18 00:49:34;;;;;;;9.23;6.20;;;;;;;15.96;49.00;101709.66;350919;28;1097;-59
2021/10/18 00:49:47;;;;;;;8.98;6.05;;;;;;;15.91;48.87;101702.84;350970;28;1164;-61
2021/10/18 00:49:59;;;;;;;8.65;5.90;;;;;;;15.96;49.43;101709.66;350804;28;939;-60
2021/10/18 00:50:11;;;;;;;8.63;5.80;;;;;;;15.77;49.01;101679.50;350941;28;1015;-60
2021/10/18 00:50:28;;;;;;;8.90;6.00;;;;;;;15.96;48.92;101708.81;350877;28;1073;-60
2021/10/18 00:50:41;;;;;;;9.45;6.10;;;;;;;15.93;49.24;101708.94;350934;28;1171;-61
2021/10/18 00:50:56;;;;;;;9.48;6.18;;;;;;;15.95;48.98;101710.63;350670;28;1244;-60
2021/10/18 00:51:10;;;;;;;8.98;6.25;;;;;;;15.95;49.29;101705.31;349993;28;1139;-60
2021/10/18 00:51:25;;;;;;;8.35;6.05;;;;;;;15.94;48.94;101708.88;350922;28;1105;-60
2021/10/18 00:51:37;;;;;;;8.77;6.03;;;;;;;15.95;49.19;101709.72;349953;28;1181;-61
2021/10/18 00:51:49;;;;;;;8.95;6.18;;;;;;;15.80;49.33;101687.34;349451;28;1049;-61
2021/10/18 00:52:02;;;;;;;8.20;5.80;;;;;;;15.95;48.96;101713.28;349498;28;1188;-61
2021/10/18 00:52:20;;;;;;;9.80;6.20;;;;;;;15.85;49.08;101695.16;349487;28;1113;-60
2021/10/18 00:52:33;;;;;;;9.65;6.25;;;;;;;15.94;49.28;101708.00;349493;28;1112;-63
2021/10/18 00:52:51;;;;;;;8.80;6.25;;;;;;;15.95;49.13;101710.63;349533;28;1092;-62
2021/10/18 00:53:04;;;;;;;8.73;6.00;;;;;;;15.86;49.13;101699.53;349552;28;1102;-60
2021/10/18 00:53:22;;;;;;;8.45;5.70;;;;;;;15.92;48.93;101707.22;349470;28;1129;-60
2021/10/18 00:53:35;;;;;;;8.65;5.90;;;;;;;15.87;49.11;101702.09;349453;28;1053;-61
2021/10/18 00:53:49;;;;;;;9.00;5.95;;;;;;;15.95;49.06;101712.38;349447;28;1029;-62
2021/10/18 00:54:02;;;;;;;9.13;6.13;;;;;;;15.91;49.15;101705.50;349481;28;1080;-60
2021/10/18 00:54:19;;;;;;;9.52;6.38;;;;;;;15.94;49.32;101710.66;349383;28;1030;-62
2021/10/18 00:54:31;;;;;;;9.32;6.30;;;;;;;15.93;49.26;101707.16;349530;28;1037;-59
2021/10/18 00:54:45;;;;;;;9.30;6.25;;;;;;;15.92;49.13;101704.56;349446;28;1160;-59
2021/10/18 00:55:04;;;;;;;9.15;6.35;;;;;;;15.95;49.19;101710.63;349538;28;1172;-61
2021/10/18 00:55:17;;;;;;;8.68;6.05;;;;;;;15.81;49.06;101695.22;349493;28;1085;-60
2021/10/18 00:55:29;;;;;;;8.70;5.80;;;;;;;15.95;49.31;101713.28;349584;28;895;-62
2021/10/18 00:55:41;;;;;;;9.05;6.03;;;;;;;15.95;49.21;101713.28;349516;28;1026;-62
2021/10/18 00:55:55;;;;;;;8.98;6.18;;;;;;;15.95;48.97;101715.91;349598;28;959;-62
2021/10/18 00:56:07;;;;;;;9.13;6.28;;;;;;;15.78;49.28;101684.75;349767;28;1158;-61
2021/10/18 00:56:20;;;;;;;9.45;6.22;;;;;;;15.96;48.96;101714.13;350107;28;1193;-59
2021/10/18 00:56:32;;;;;;;9.07;6.03;;;;;;;15.91;49.15;101703.69;349389;28;1069;-60
2021/10/18 00:56:49;;;;;;;8.75;5.93;;;;;;;15.91;49.02;101711.66;350452;28;1170;-59
2021/10/18 00:57:01;;;;;;;8.88;6.05;;;;;;;15.89;49.01;101704.69;350836;28;1165;-60
2021/10/18 00:57:15;;;;;;;8.55;5.88;;;;;;;15.95;49.23;101712.38;350882;28;1131;-59
2021/10/18 00:57:32;;;;;;;9.63;6.00;;;;;;;15.93;49.15;101711.56;350850;28;1479;-61
2021/10/18 00:57:46;;;;;;;9.77;6.20;;;;;;;15.95;48.99;101715.03;349437;28;903;-61
2021/10/18 00:57:58;;;;;;;8.80;6.10;;;;;;;15.94;49.06;101716.84;349452;28;819;-61
2021/10/18 00:58:10;;;;;;;8.63;6.00;;;;;;;15.93;49.28;101715.13;349358;28;1054;-60
2021/10/18 00:58:23;;;;;;;9.60;6.20;;;;;;;15.95;49.25;101717.69;349307;28;989;-61
2021/10/18 00:58:42;;;;;;;9.90;6.05;;;;;;;15.93;49.28;101711.56;349396;28;1081;-61
2021/10/18 00:58:55;;;;;;;9.23;5.95;;;;;;;15.90;49.00;101709.91;349492;28;934;-61
2021/10/18 00:59:13;;;;;;;8.70;5.90;;;;;;;15.95;49.19;101723.88;349130;28;1084;-59
2021/10/18 00:59:25;;;;;;;8.80;5.90;;;;;;;15.87;48.94;101701.22;349194;28;1034;-59
2021/10/18 00:59:43;;;;;;;9.07;6.03;;;;;;;15.93;49.52;101719.53;349907;28;1167;-60
2021/10/18 00:59:55;;;;;;;8.48;6.20;;;;;;;15.87;49.25;101706.53;350697;28;1090;-61
2021/10/18 01:00:13;;;;;;;9.00;6.25;;;;;;;15.91;49.03;101711.66;350874;28;1032;-61
2021/10/18 01:00:25;;;;;;;9.20;6.25;;;;;;;15.91;49.20;101713.47;350850;28;1009;-62
2021/10/18 01:00:42;;;;;;;8.23;6.13;;;;;;;15.94;48.99;101719.50;350792;28;1101;-62
2021/10/18 01:00:55;;;;;;;8.50;6.30;;;;;;;15.89;49.06;101710.00;350980;28;1029;-62
2021/10/18 01:01:08;;;;;;;8.75;6.10;;;;;;;15.93;49.31;101719.53;350845;28;1041;-59
2021/10/18 01:01:20;;;;;;;8.40;5.90;;;;;;;15.93;49.18;101717.78;349947;28;1173;-60
2021/10/18 01:01:33;;;;;;;8.48;6.00;;;;;;;15.87;49.31;101706.53;350477;28;1312;-60
2021/10/18 01:01:50;;;;;;;9.05;6.03;;;;;;;15.94;48.90;101722.16;350857;28;1120;-61
2021/10/18 01:02:03;;;;;;;8.73;5.70;;;;;;;15.94;49.28;101721.28;350889;28;947;-60
2021/10/18 01:02:20;;;;;;;8.02;5.60;;;;;;;15.94;49.01;101716.84;350947;28;1081;-59
2021/10/18 01:02:32;;;;;;;7.85;5.57;;;;;;;15.95;49.06;101728.31;350943;28;1041;-60
2021/10/18 01:02:45;;;;;;;8.15;5.85;;;;;;;15.76;49.22;101688.38;350810;28;1074;-63
2021/10/18 01:03:03;;;;;;;9.10;6.38;;;;;;;15.93;49.18;101716.88;350930;28;1038;-60
2021/10/18 01:03:15;;;;;;;8.95;6.20;;;;;;;15.95;49.33;101721.22;350823;28;1165;-63
2021/10/18 01:03:32;;;;;;;8.15;5.90;;;;;;;15.92;49.25;101717.84;350957;28;915;-63
2021/10/18 01:03:44;;;;;;;8.05;5.90;;;;;;;15.95;49.05;101723.00;350871;28;1045;-60
2021/10/18 01:04:03;;;;;;;8.55;6.07;;;;;;;15.92;49.33;101713.38;350821;28;1100;-60
2021/10/18 01:04:15;;;;;;;8.20;6.00;;;;;;;15.94;48.86;101721.28;350888;28;1057;-61
2021/10/18 01:04:32;;;;;;;7.65;5.78;;;;;;;15.90;49.21;101717.03;350872;28;1054;-60
2021/10/18 01:04:45;;;;;;;8.15;5.90;;;;;;;15.94;49.17;101722.16;348388;28;1175;-59
2021/10/18 01:04:57;;;;;;;8.25;5.82;;;;;;;15.87;49.18;101712.72;347882;28;1179;-62
2021/10/18 01:05:10;;;;;;;8.75;5.88;;;;;;;15.90;49.01;101709.91;348027;28;1717;-60
2021/10/18 01:05:22;;;;;;;8.43;5.72;;;;;;;15.77;49.21;101696.31;347941;28;1509;-63
2021/10/18 01:05:41;;;;;;;8.80;6.10;;;;;;;15.87;48.83;101709.19;348027;28;1122;-62
2021/10/18 01:05:53;;;;;;;8.77;5.90;;;;;;;15.87;49.25;101712.72;347927;28;1417;-62
2021/10/18 01:06:05;;;;;;;8.43;5.80;;;;;;;15.92;49.14;101718.69;348070;28;1173;-60
2021/10/18 01:06:17;;;;;;;9.05;6.10;;;;;;;15.84;49.16;101706.69;347975;28;1157;-63
2021/10/18 01:06:30;;;;;;;9.18;6.05;;;;;;;15.94;48.84;101723.91;348433;28;1136;-62
2021/10/18 01:06:47;;;;;;;9.75;6.10;;;;;;;15.92;49.17;101718.69;349356;28;1514;-59
2021/10/18 01:06:59;;;;;;;9.93;6.15;;;;;;;15.94;49.11;101727.47;347973;28;843;-62
2021/10/18 01:07:12;;;;;;;10.07;6.22;;;;;;;15.92;49.27;101723.16;349226;28;1207;-63
2021/10/18 01:07:30;;;;;;;9.13;6.15;;;;;;;15.94;49.01;101721.28;349370;28;1058;-61
2021/10/18 01:07:43;;;;;;;8.30;5.85;;;;;;;15.94;48.97;101723.91;349436;28;1045;-62
2021/10/18 01:07:57;;;;;;;8.35;5.75;;;;;;;15.94;49.07;101726.56;349334;28;1038;-61
2021/10/18 01:08:09;;;;;;;9.02;6.07;;;;;;;15.93;49.01;101725.72;349417;28;1066;-60